createdAt,value
2023-02-04T00:00:29.185Z,1.85
2023-02-04T00:02:57.499Z,1.42
2023-02-04T00:05:25.478Z,1.50
2023-02-04T00:07:53.494Z,4.38
2023-02-04T00:10:22.989Z,1.00
2023-02-04T00:12:50.899Z,2.58
2023-02-04T00:15:18.840Z,2.13
2023-02-04T00:17:46.920Z,2.58
2023-02-04T00:20:14.988Z,1.27
2023-02-04T00:22:42.979Z,1.23
2023-02-04T00:25:10.970Z,2.30
2023-02-04T00:27:40.632Z,1.33
2023-02-04T00:30:09.862Z,4.32
2023-02-04T00:32:37.948Z,2.28
2023-02-04T00:35:06.386Z,1.83
2023-02-04T00:37:34.332Z,1.50
2023-02-04T00:40:02.643Z,1.00
2023-02-04T00:42:30.567Z,2.00
2023-02-04T00:44:59.959Z,2.53
2023-02-04T00:47:27.917Z,1.88
2023-02-04T00:49:55.819Z,1.90
2023-02-04T00:52:23.776Z,1.15
2023-02-04T00:54:51.860Z,1.50
2023-02-04T00:57:20.129Z,1.77
2023-02-04T00:59:48.184Z,1.10
2023-02-04T01:02:18.537Z,1.85
2023-02-04T01:04:46.657Z,1.90
2023-02-04T01:07:14.695Z,2.30
2023-02-04T01:09:42.742Z,1.52
2023-02-04T01:12:10.840Z,1.40
2023-02-04T01:14:38.766Z,2.13
2023-02-04T01:17:06.767Z,1.88
2023-02-04T01:19:36.014Z,2.00
2023-02-04T01:22:03.954Z,1.45
2023-02-04T01:24:31.891Z,2.08
2023-02-04T01:26:59.864Z,2.40
2023-02-04T01:29:27.767Z,1.65
2023-02-04T01:31:55.773Z,2.20
2023-02-04T01:34:25.951Z,2.22
2023-02-04T01:36:55.240Z,2.63
2023-02-04T01:39:23.201Z,1.83
2023-02-04T01:41:51.332Z,1.88
2023-02-04T01:44:19.263Z,3.60
2023-02-04T01:46:47.261Z,3.10
2023-02-04T01:49:15.377Z,3.22
2023-02-04T01:51:43.358Z,1.92
2023-02-04T01:54:13.404Z,1.65
2023-02-04T01:56:44.027Z,1.67
2023-02-04T01:59:13.665Z,2.75
2023-02-04T02:01:43.122Z,1.85
2023-02-04T02:04:11.895Z,1.95
2023-02-04T02:06:43.273Z,1.17
2023-02-04T02:09:12.653Z,1.83
2023-02-04T02:11:40.798Z,1.75
2023-02-04T02:14:09.087Z,1.38
2023-02-04T02:16:37.158Z,2.28
2023-02-04T02:19:08.571Z,1.50
2023-02-04T02:21:40.464Z,2.35
2023-02-04T02:24:28.470Z,2.67
2023-02-04T02:26:59.283Z,3.65
2023-02-04T02:29:28.239Z,2.67
2023-02-04T02:31:58.338Z,1.92
2023-02-04T02:34:28.107Z,1.80
2023-02-04T02:36:56.551Z,1.23
2023-02-04T02:39:25.046Z,3.08
2023-02-04T02:41:54.947Z,2.40
2023-02-04T02:44:23.257Z,1.63
2023-02-04T02:46:51.286Z,2.30
2023-02-04T02:49:20.884Z,2.50
2023-02-04T02:51:49.647Z,2.08
2023-02-04T02:54:22.939Z,3.90
2023-02-04T02:56:51.504Z,1.50
2023-02-04T02:59:21.377Z,1.70
2023-02-04T03:01:52.811Z,2.70
2023-02-04T03:04:22.636Z,1.75
2023-02-04T03:06:51.554Z,1.70
2023-02-04T03:09:20.105Z,1.75
2023-02-04T03:11:48.354Z,1.45
2023-02-04T03:14:16.593Z,1.63
2023-02-04T03:16:46.861Z,1.75
2023-02-04T03:19:15.151Z,1.58
2023-02-04T03:21:43.568Z,1.75
2023-02-04T03:24:11.674Z,2.35
2023-02-04T03:26:39.829Z,3.40
2023-02-04T03:29:08.755Z,1.92
2023-02-04T03:31:37.779Z,2.53
2023-02-04T03:34:07.316Z,3.58
2023-02-04T03:36:36.463Z,3.75
2023-02-04T03:39:04.787Z,2.10
2023-02-04T03:41:32.801Z,6.78
2023-02-04T03:44:00.742Z,5.10
2023-02-04T03:46:28.915Z,6.30
2023-02-04T03:48:57.119Z,9.02
2023-02-04T03:51:26.457Z,3.42
2023-02-04T03:53:54.496Z,11.13
2023-02-04T03:56:22.419Z,6.38
2023-02-04T03:58:50.819Z,11.10
2023-02-04T04:01:19.068Z,16.63
2023-02-04T04:03:47.040Z,12.20
2023-02-04T04:06:14.998Z,6.38
2023-02-04T04:08:44.357Z,16.83
2023-02-04T04:11:12.330Z,8.98
2023-02-04T04:13:40.505Z,11.88
2023-02-04T04:16:09.080Z,7.50
2023-02-04T04:18:37.293Z,10.85
2023-02-04T04:21:05.458Z,13.32
2023-02-04T04:23:33.815Z,13.15
2023-02-04T04:26:03.292Z,11.13
2023-02-04T04:28:31.412Z,8.10
2023-02-04T04:30:59.353Z,12.48
2023-02-04T04:33:27.343Z,10.13
2023-02-04T04:35:55.463Z,7.65
2023-02-04T04:38:23.883Z,8.02
2023-02-04T04:40:51.910Z,8.95
2023-02-04T04:43:21.234Z,8.52
2023-02-04T04:45:49.153Z,9.63
2023-02-04T04:48:17.424Z,6.43
2023-02-04T04:50:45.389Z,9.65
2023-02-04T04:53:13.377Z,8.00
2023-02-04T04:55:41.495Z,8.80
2023-02-04T04:58:09.811Z,8.80
2023-02-04T05:00:39.273Z,6.18
2023-02-04T05:03:07.676Z,9.23
2023-02-04T05:05:39.901Z,8.20
2023-02-04T05:08:10.794Z,9.13
2023-02-04T05:10:38.790Z,10.55
2023-02-04T05:13:06.783Z,10.57
2023-02-04T05:15:34.872Z,12.73
2023-02-04T05:18:04.438Z,9.13
2023-02-04T05:20:32.770Z,10.43
2023-02-04T05:23:02.259Z,8.02
2023-02-04T05:25:31.532Z,13.23
2023-02-04T05:27:59.642Z,10.45
2023-02-04T05:30:27.664Z,12.27
2023-02-04T05:32:55.708Z,12.73
2023-02-04T05:35:25.140Z,14.38
2023-02-04T05:37:53.074Z,6.75
2023-02-04T05:40:21.328Z,13.98
2023-02-04T05:42:49.325Z,14.77
2023-02-04T05:45:18.897Z,14.82
2023-02-04T05:47:46.924Z,13.55
2023-02-04T05:50:15.117Z,14.05
2023-02-04T05:52:44.526Z,10.13
2023-02-04T05:55:13.365Z,11.23
2023-02-04T05:57:41.554Z,15.02
2023-02-04T06:00:12.364Z,17.92
2023-02-04T06:02:40.412Z,15.07
2023-02-04T06:05:08.778Z,13.93
2023-02-04T06:07:36.724Z,12.25
2023-02-04T06:10:06.713Z,19.00
2023-02-04T06:12:34.751Z,16.33
2023-02-04T06:15:02.778Z,15.32
2023-02-04T06:17:30.745Z,19.58
2023-02-04T06:19:58.725Z,13.52
2023-02-04T06:22:26.845Z,11.82
2023-02-04T06:24:54.916Z,17.48
2023-02-04T06:27:24.406Z,10.52
2023-02-04T06:29:52.990Z,15.18
2023-02-04T06:32:21.454Z,13.43
2023-02-04T06:34:49.453Z,18.95
2023-02-04T06:37:18.039Z,13.30
2023-02-04T06:39:46.008Z,17.55
2023-02-04T06:42:13.951Z,22.15
2023-02-04T06:44:43.284Z,18.40
2023-02-04T06:47:11.261Z,18.17
2023-02-04T06:49:39.343Z,13.68
2023-02-04T06:52:07.300Z,14.48
2023-02-04T06:54:35.509Z,12.75
2023-02-04T06:57:06.706Z,25.73
2023-02-04T06:59:35.038Z,11.75
2023-02-04T07:02:05.184Z,13.98
2023-02-04T07:04:33.212Z,16.20
2023-02-04T07:07:01.214Z,17.90
2023-02-04T07:09:29.128Z,14.25
2023-02-04T07:11:57.078Z,14.55
2023-02-04T07:14:25.119Z,15.88
2023-02-04T07:16:53.043Z,14.63
2023-02-04T07:19:22.292Z,17.17
2023-02-04T07:21:54.259Z,17.88
2023-02-04T07:24:22.207Z,12.43
2023-02-04T07:26:50.259Z,13.65
2023-02-04T07:29:25.236Z,14.23
2023-02-04T07:31:53.778Z,15.32
2023-02-04T07:34:23.198Z,18.70
2023-02-04T07:36:51.275Z,13.52
2023-02-04T07:39:19.253Z,14.77
2023-02-04T07:41:47.166Z,12.98
2023-02-04T07:44:15.160Z,9.82
2023-02-04T07:46:43.486Z,10.95
2023-02-04T07:49:11.534Z,9.60
2023-02-04T07:51:40.928Z,13.25
2023-02-04T07:54:08.924Z,10.52
2023-02-04T07:56:37.027Z,11.35
2023-02-04T07:59:04.985Z,12.05
2023-02-04T08:01:33.040Z,14.43
2023-02-04T08:04:01.010Z,12.15
2023-02-04T08:06:29.182Z,12.77
2023-02-04T08:08:58.455Z,15.07
2023-02-04T08:11:27.021Z,16.80
2023-02-04T08:13:54.989Z,14.07
2023-02-04T08:16:23.004Z,12.27
2023-02-04T08:18:51.006Z,15.20
2023-02-04T08:21:19.590Z,15.45
2023-02-04T08:23:47.576Z,10.52
2023-02-04T08:26:16.940Z,10.10
2023-02-04T08:28:44.953Z,14.73
2023-02-04T08:31:12.929Z,13.95
2023-02-04T08:33:41.126Z,13.93
2023-02-04T08:36:09.395Z,15.10
2023-02-04T08:38:37.371Z,15.77
2023-02-04T08:41:05.742Z,10.48
2023-02-04T08:43:35.108Z,11.27
2023-02-04T08:46:03.155Z,12.10
2023-02-04T08:48:31.052Z,10.98
2023-02-04T08:50:59.093Z,8.43
2023-02-04T08:53:27.040Z,13.68
2023-02-04T08:55:55.013Z,22.17
2023-02-04T08:58:22.918Z,20.45
2023-02-04T09:00:52.253Z,19.27
2023-02-04T09:03:20.271Z,14.98
2023-02-04T09:05:48.626Z,10.57
2023-02-04T09:08:16.798Z,11.18
2023-02-04T09:10:44.712Z,6.88
2023-02-04T09:13:14.339Z,9.20
2023-02-04T09:15:42.333Z,9.80
2023-02-04T09:18:16.983Z,12.10
2023-02-04T09:20:45.376Z,12.02
2023-02-04T09:23:13.931Z,37.90
2023-02-04T09:25:42.919Z,18.92
2023-02-04T09:28:12.492Z,18.08
2023-02-04T09:30:41.000Z,15.77
2023-02-04T09:33:09.688Z,10.48
2023-02-04T09:35:39.479Z,17.92
2023-02-04T09:38:07.640Z,7.97
2023-02-04T09:40:38.097Z,9.45
2023-02-04T09:43:07.344Z,12.23
2023-02-04T09:45:36.460Z,13.57
2023-02-04T09:48:07.152Z,13.77
2023-02-04T09:50:36.131Z,20.50
2023-02-04T09:53:08.436Z,10.52
2023-02-04T09:58:12.642Z,14.45
2023-02-04T10:00:40.593Z,10.57
2023-02-04T10:03:16.106Z,8.73
2023-02-04T10:05:45.437Z,8.38
2023-02-04T10:08:17.988Z,12.98
2023-02-04T10:13:19.107Z,12.85
2023-02-04T10:18:23.395Z,11.75
2023-02-04T10:20:51.394Z,15.25
2023-02-04T10:23:21.607Z,12.90
2023-02-04T10:25:49.646Z,12.38
2023-02-04T10:28:18.402Z,18.48
2023-02-04T10:31:05.401Z,11.02
2023-02-04T10:33:36.992Z,11.85
2023-02-04T10:36:07.029Z,12.32
2023-02-04T10:38:36.412Z,9.85
2023-02-04T10:41:06.651Z,18.63
2023-02-04T10:43:34.580Z,11.90
2023-02-04T10:46:04.116Z,14.68
2023-02-04T10:48:41.190Z,13.40
2023-02-04T10:51:14.425Z,9.85
2023-02-04T10:54:01.313Z,11.63
2023-02-04T10:56:29.442Z,9.57
2023-02-04T10:58:57.490Z,9.63
2023-02-04T11:01:29.831Z,7.85
2023-02-04T11:03:58.073Z,14.30
2023-02-04T11:06:26.555Z,11.25
2023-02-04T11:08:56.050Z,10.32
2023-02-04T11:11:26.851Z,10.68
2023-02-04T11:14:04.181Z,11.75
2023-02-04T11:16:35.352Z,19.52
2023-02-04T11:19:05.762Z,16.88
2023-02-04T11:21:44.590Z,20.73
2023-02-04T11:24:33.742Z,15.38
2023-02-04T11:27:09.548Z,13.95
2023-02-04T11:29:39.127Z,7.05
2023-02-04T11:32:27.416Z,13.52
2023-02-04T11:34:57.331Z,8.95
2023-02-04T11:37:40.111Z,9.00
2023-02-04T11:43:03.882Z,13.52
2023-02-04T11:45:34.946Z,17.67
2023-02-04T11:48:05.303Z,13.18
2023-02-04T11:50:35.523Z,11.25
2023-02-04T11:53:03.795Z,11.90
2023-02-04T11:55:35.928Z,12.02
2023-02-04T11:58:07.423Z,16.63
2023-02-04T12:00:36.343Z,13.37
2023-02-04T12:03:08.727Z,11.32
2023-02-04T12:05:40.756Z,15.23
2023-02-04T12:08:14.054Z,15.95
2023-02-04T12:10:50.142Z,14.00
2023-02-04T12:13:25.173Z,11.65
2023-02-04T12:16:00.310Z,12.88
2023-02-04T12:18:28.792Z,10.05
2023-02-04T12:20:57.329Z,14.82
2023-02-04T12:23:25.987Z,12.80
2023-02-04T12:25:54.536Z,10.93
2023-02-04T12:28:24.275Z,10.93
2023-02-04T12:30:52.411Z,11.10
2023-02-04T12:33:20.584Z,6.82
2023-02-04T12:35:48.553Z,15.77
2023-02-04T12:38:18.372Z,13.27
2023-02-04T12:40:47.446Z,8.52
2023-02-04T12:43:15.597Z,10.70
2023-02-04T12:45:46.452Z,27.83
2023-02-04T12:48:19.458Z,23.45
2023-02-04T12:51:06.835Z,15.88
2023-02-04T12:53:50.096Z,12.70
2023-02-04T12:56:46.211Z,13.60
2023-02-04T12:59:26.621Z,13.18
2023-02-04T13:02:14.654Z,11.18
2023-02-04T13:08:57.979Z,13.90
2023-02-04T13:12:13.721Z,11.27
2023-02-04T13:15:01.530Z,13.15
2023-02-04T13:17:37.381Z,6.90
2023-02-04T13:24:16.935Z,12.15
2023-02-04T13:27:17.236Z,7.40
2023-02-04T13:30:53.194Z,8.10
2023-02-04T13:34:27.306Z,8.02
2023-02-04T13:38:07.407Z,6.82
2023-02-04T13:41:10.350Z,12.95
2023-02-04T13:44:06.194Z,9.68
2023-02-04T13:46:54.171Z,9.30
2023-02-04T13:49:45.254Z,8.20
2023-02-04T13:56:05.622Z,10.43
2023-02-04T13:59:00.185Z,15.80
2023-02-04T14:02:24.516Z,10.93
2023-02-04T14:06:17.240Z,13.07
2023-02-04T14:09:48.420Z,8.30
2023-02-04T14:12:19.338Z,12.00
2023-02-04T14:14:47.410Z,10.10
2023-02-04T14:17:16.576Z,7.30
2023-02-04T14:19:44.603Z,8.13
2023-02-04T14:22:13.987Z,8.52
2023-02-04T14:24:42.700Z,7.15
2023-02-04T14:27:11.777Z,10.50
2023-02-04T14:29:39.683Z,12.38
2023-02-04T14:32:08.365Z,7.53
2023-02-04T14:34:36.355Z,7.28
2023-02-04T14:37:04.294Z,8.68
2023-02-04T14:39:33.687Z,8.18
2023-02-04T14:42:04.386Z,6.68
2023-02-04T14:44:32.472Z,8.57
2023-02-04T14:47:00.559Z,11.98
2023-02-04T14:49:28.524Z,6.72
2023-02-04T14:51:57.023Z,5.72
2023-02-04T14:54:25.104Z,6.35
2023-02-04T14:56:54.511Z,4.55
2023-02-04T14:59:22.644Z,5.93
2023-02-04T15:01:50.503Z,9.13
2023-02-04T15:04:19.061Z,5.38
2023-02-04T15:06:47.144Z,6.22
2023-02-04T15:09:15.111Z,7.25
2023-02-04T15:11:43.147Z,3.38
2023-02-04T15:14:12.461Z,5.65
2023-02-04T15:16:41.985Z,4.57
2023-02-04T15:19:09.989Z,3.67
2023-02-04T15:21:37.965Z,6.38
2023-02-04T15:24:05.989Z,7.53
2023-02-04T15:26:33.928Z,9.60
2023-02-04T15:29:01.884Z,5.32
2023-02-04T15:31:31.366Z,3.97
2023-02-04T15:33:59.907Z,6.95
2023-02-04T15:36:28.056Z,10.75
2023-02-04T15:38:56.179Z,3.88
2023-02-04T15:41:24.094Z,2.42
2023-02-04T15:43:52.033Z,2.10
2023-02-04T15:46:20.175Z,4.97
2023-02-04T15:48:49.915Z,4.10
2023-02-04T15:51:18.022Z,12.50
2023-02-04T15:53:45.910Z,7.03
2023-02-04T15:56:13.895Z,4.00
2023-02-04T15:58:41.944Z,3.40
2023-02-04T16:01:10.104Z,3.63
2023-02-04T16:03:38.162Z,3.45
2023-02-04T16:06:07.984Z,14.18
2023-02-04T16:08:35.961Z,3.60
2023-02-04T16:11:05.962Z,5.15
2023-02-04T16:13:34.302Z,7.30
2023-02-04T16:16:02.400Z,7.43
2023-02-04T16:18:30.806Z,3.75
2023-02-04T16:20:58.880Z,3.85
2023-02-04T16:23:28.338Z,3.47
2023-02-04T16:25:56.397Z,5.15
2023-02-04T16:28:25.401Z,6.00
2023-02-04T16:30:53.591Z,7.47
2023-02-04T16:33:21.941Z,7.00
2023-02-04T16:36:04.259Z,7.63
2023-02-04T16:38:33.803Z,4.95
2023-02-04T16:41:01.837Z,5.25
2023-02-04T16:43:29.946Z,7.07
2023-02-04T16:45:58.172Z,4.13
2023-02-04T16:48:26.775Z,7.88
2023-02-04T16:50:54.867Z,4.60
2023-02-04T16:53:23.224Z,5.82
2023-02-04T16:55:52.776Z,7.68
2023-02-04T16:58:20.971Z,8.60
2023-02-04T17:00:50.226Z,6.53
2023-02-04T17:03:18.341Z,10.63
2023-02-04T17:05:46.541Z,5.20
2023-02-04T17:08:17.227Z,6.95
2023-02-04T17:11:02.664Z,8.38
2023-02-04T17:13:32.145Z,7.65
2023-02-04T17:16:01.300Z,10.30
2023-02-04T17:18:51.540Z,12.95
2023-02-04T17:21:19.793Z,10.20
2023-02-04T17:23:47.856Z,10.23
2023-02-04T17:26:16.108Z,11.48
2023-02-04T17:28:45.911Z,14.57
2023-02-04T17:31:14.318Z,13.00
2023-02-04T17:33:42.588Z,8.98
2023-02-04T17:36:13.630Z,6.88
2023-02-04T17:38:41.797Z,17.98
2023-02-04T17:41:10.015Z,7.43
2023-02-04T17:43:38.277Z,9.77
2023-02-04T17:46:08.015Z,8.88
2023-02-04T17:48:36.239Z,8.68
2023-02-04T17:51:04.276Z,9.30
2023-02-04T17:53:33.238Z,12.20
2023-02-04T17:56:02.640Z,9.18
2023-02-04T17:58:32.877Z,10.25
2023-02-04T18:01:01.188Z,18.08
2023-02-04T18:03:30.980Z,6.07
2023-02-04T18:05:59.844Z,8.95
2023-02-04T18:08:31.858Z,8.68
2023-02-04T18:11:00.121Z,6.45
2023-02-04T18:13:32.815Z,6.43
2023-02-04T18:16:03.866Z,12.15
2023-02-04T18:18:36.950Z,7.07
2023-02-04T18:21:21.261Z,6.03
2023-02-04T18:23:53.991Z,6.03
2023-02-04T18:26:25.666Z,9.50
2023-02-04T18:28:53.978Z,9.03
2023-02-04T18:31:29.989Z,5.38
2023-02-04T18:34:00.248Z,6.45
2023-02-04T18:36:28.472Z,4.15
2023-02-04T18:38:56.781Z,7.50
2023-02-04T18:41:34.149Z,6.65
2023-02-04T18:44:16.705Z,6.70
2023-02-04T18:46:48.457Z,5.50
2023-02-04T18:49:27.491Z,5.40
2023-02-04T18:51:57.889Z,4.75
2023-02-04T18:54:34.993Z,5.50
2023-02-04T18:57:29.310Z,8.50
2023-02-04T19:00:27.587Z,6.13
2023-02-04T19:02:59.969Z,4.40
2023-02-04T19:05:33.988Z,6.68
2023-02-04T19:08:26.444Z,4.07
2023-02-04T19:10:56.988Z,10.07
2023-02-04T19:13:27.404Z,6.13
2023-02-04T19:16:01.916Z,9.50
2023-02-04T19:18:38.344Z,12.68
2023-02-04T19:21:25.799Z,12.27
2023-02-04T19:23:59.938Z,12.60
2023-02-04T19:26:35.413Z,13.65
2023-02-04T19:29:38.735Z,11.10
2023-02-04T19:32:24.447Z,9.02
2023-02-04T19:34:54.198Z,7.03
2023-02-04T19:37:27.538Z,9.65
2023-02-04T19:39:56.600Z,15.48
2023-02-04T19:42:29.750Z,8.48
2023-02-04T19:44:59.449Z,3.80
2023-02-04T19:47:30.104Z,5.32
2023-02-04T19:50:19.835Z,5.78
2023-02-04T19:52:52.109Z,4.50
2023-02-04T19:55:29.878Z,4.20
2023-02-04T19:58:00.897Z,4.35
2023-02-04T20:00:44.779Z,4.15
2023-02-04T20:03:25.669Z,5.40
2023-02-04T20:05:53.825Z,6.15
2023-02-04T20:08:43.961Z,5.47
2023-02-04T20:11:35.467Z,9.32
2023-02-04T20:14:23.007Z,10.60
2023-02-04T20:16:53.699Z,8.95
2023-02-04T20:19:25.239Z,6.88
2023-02-04T20:22:34.293Z,6.33
2023-02-04T20:25:35.210Z,13.05
2023-02-04T20:28:21.786Z,6.40
2023-02-04T20:30:51.364Z,6.28
2023-02-04T20:33:35.753Z,9.63
2023-02-04T20:36:25.079Z,8.35
2023-02-04T20:39:03.166Z,9.23
2023-02-04T20:41:37.817Z,6.97
2023-02-04T20:44:15.900Z,9.35
2023-02-04T20:46:44.466Z,11.82
2023-02-04T20:49:23.142Z,12.68
2023-02-04T20:51:51.968Z,14.02
2023-02-04T20:54:20.057Z,12.48
2023-02-04T20:56:49.577Z,10.65
2023-02-04T20:59:33.688Z,6.40
2023-02-04T21:02:04.638Z,9.20
2023-02-04T21:04:36.940Z,7.00
2023-02-04T21:07:14.851Z,7.03
2023-02-04T21:09:42.876Z,6.03
2023-02-04T21:12:12.635Z,4.95
2023-02-04T21:14:40.922Z,6.68
2023-02-04T21:17:09.254Z,6.20
2023-02-04T21:19:37.363Z,8.82
2023-02-04T21:22:05.452Z,4.32
2023-02-04T21:24:33.847Z,7.15
2023-02-04T21:27:02.054Z,5.95
2023-02-04T21:29:31.425Z,5.63
2023-02-04T21:31:59.512Z,4.45
2023-02-04T21:34:27.543Z,6.00
2023-02-04T21:36:55.657Z,6.63
2023-02-04T21:39:24.434Z,6.20
2023-02-04T21:42:10.131Z,5.75
2023-02-04T21:44:40.356Z,5.65
2023-02-04T21:47:08.468Z,5.97
2023-02-04T21:49:39.820Z,6.30
2023-02-04T21:52:09.426Z,7.57
2023-02-04T21:54:37.613Z,5.88
2023-02-04T21:57:05.610Z,7.45
2023-02-04T21:59:33.744Z,6.20
2023-02-04T22:02:04.765Z,5.90
2023-02-04T22:04:32.804Z,5.38
2023-02-04T22:07:01.088Z,4.72
2023-02-04T22:09:29.116Z,19.60
2023-02-04T22:11:57.359Z,14.80
2023-02-04T22:14:25.372Z,4.95
2023-02-04T22:16:53.469Z,5.78
2023-02-04T22:19:22.892Z,8.40
2023-02-04T22:21:51.083Z,8.43
2023-02-04T22:24:19.278Z,7.38
2023-02-04T22:26:47.407Z,6.25
2023-02-04T22:29:19.372Z,5.88
2023-02-04T22:31:47.518Z,5.20
2023-02-04T22:34:15.652Z,6.38
2023-02-04T22:36:45.079Z,7.88
2023-02-04T22:39:13.051Z,5.90
2023-02-04T22:41:41.039Z,5.75
2023-02-04T22:44:09.144Z,8.02
2023-02-04T22:46:37.200Z,9.27
2023-02-04T22:49:06.022Z,6.80
2023-02-04T22:51:34.595Z,5.63
2023-02-04T22:54:03.928Z,5.05
2023-02-04T22:56:32.180Z,6.97
2023-02-04T22:59:00.147Z,6.82
2023-02-04T23:01:28.216Z,8.40
2023-02-04T23:03:56.300Z,6.95
2023-02-04T23:06:24.578Z,5.18
2023-02-04T23:08:53.399Z,7.93
2023-02-04T23:11:23.270Z,4.88
2023-02-04T23:13:51.416Z,7.15
2023-02-04T23:16:20.206Z,5.47
2023-02-04T23:18:48.307Z,5.63
2023-02-04T23:21:16.406Z,5.63
2023-02-04T23:23:44.666Z,7.68
2023-02-04T23:26:13.135Z,6.40
2023-02-04T23:28:43.159Z,6.45
2023-02-04T23:31:11.899Z,6.00
2023-02-04T23:33:40.023Z,6.35
2023-02-04T23:36:09.060Z,5.88
2023-02-04T23:38:37.061Z,6.43
2023-02-04T23:41:05.275Z,6.03
2023-02-04T23:43:33.256Z,5.32
2023-02-04T23:46:02.733Z,6.68
2023-02-04T23:48:30.773Z,7.45
2023-02-04T23:50:59.443Z,4.80
2023-02-04T23:53:27.426Z,5.63
2023-02-04T23:55:55.395Z,5.50
2023-02-04T23:58:23.405Z,6.25
